createdAt,value
2022-12-01T00:00:28.530Z,6.60
2022-12-01T00:02:31.398Z,6.60
2022-12-01T00:04:34.345Z,6.60
2022-12-01T00:06:38.583Z,6.60
2022-12-01T00:09:01.516Z,6.60
2022-12-01T00:11:05.039Z,6.60
2022-12-01T00:13:08.146Z,6.60
2022-12-01T00:15:11.617Z,6.60
2022-12-01T00:17:14.493Z,6.60
2022-12-01T00:19:17.902Z,6.60
2022-12-01T00:21:23.190Z,6.60
2022-12-01T00:23:27.197Z,6.60
2022-12-01T00:25:30.727Z,6.50
2022-12-01T00:27:33.486Z,6.50
2022-12-01T00:29:36.194Z,6.40
2022-12-01T00:31:39.012Z,6.40
2022-12-01T00:33:42.016Z,6.40
2022-12-01T00:35:44.917Z,6.30
2022-12-01T00:37:47.621Z,6.30
2022-12-01T00:39:52.048Z,6.20
2022-12-01T00:41:54.763Z,6.20
2022-12-01T00:43:57.488Z,6.20
2022-12-01T00:46:00.435Z,6.20
2022-12-01T00:48:03.389Z,6.10
2022-12-01T00:50:07.286Z,6.10
2022-12-01T00:52:10.158Z,6.10
2022-12-01T00:54:12.855Z,6.10
2022-12-01T00:56:16.926Z,6.00
2022-12-01T00:58:20.043Z,6.00
2022-12-01T01:00:23.057Z,6.00
2022-12-01T01:02:25.862Z,6.00
2022-12-01T01:04:30.963Z,6.00
2022-12-01T01:06:33.669Z,6.00
2022-12-01T01:08:36.746Z,6.00
2022-12-01T01:10:40.155Z,6.00
2022-12-01T01:12:44.209Z,6.00
2022-12-01T01:14:51.198Z,5.90
2022-12-01T01:16:54.077Z,5.90
2022-12-01T01:18:58.171Z,6.00
2022-12-01T01:21:02.989Z,5.90
2022-12-01T01:23:05.688Z,5.90
2022-12-01T01:25:09.387Z,5.90
2022-12-01T01:27:12.344Z,5.90
2022-12-01T01:29:16.414Z,6.00
2022-12-01T01:31:22.419Z,6.00
2022-12-01T01:33:25.379Z,6.00
2022-12-01T01:35:28.159Z,6.00
2022-12-01T01:37:30.855Z,6.00
2022-12-01T01:39:33.517Z,6.00
2022-12-01T01:41:36.311Z,6.00
2022-12-01T01:43:45.401Z,6.00
2022-12-01T01:45:49.823Z,6.00
2022-12-01T01:47:54.880Z,6.00
2022-12-01T01:50:05.243Z,6.00
2022-12-01T01:52:08.083Z,6.00
2022-12-01T01:54:15.500Z,5.90
2022-12-01T01:56:18.967Z,5.90
2022-12-01T01:58:22.167Z,5.90
2022-12-01T02:00:25.330Z,5.90
2022-12-01T02:02:29.413Z,5.80
2022-12-01T02:04:33.763Z,5.80
2022-12-01T02:06:36.707Z,5.80
2022-12-01T02:08:40.020Z,5.80
2022-12-01T02:10:57.777Z,5.70
2022-12-01T02:13:13.065Z,5.70
2022-12-01T02:15:25.149Z,5.70
2022-12-01T02:17:41.381Z,5.60
2022-12-01T02:20:05.209Z,5.60
2022-12-01T02:22:19.995Z,5.60
2022-12-01T02:24:53.136Z,5.60
2022-12-01T02:27:02.313Z,5.60
2022-12-01T02:29:34.471Z,5.50
2022-12-01T02:31:43.093Z,5.50
2022-12-01T02:33:54.775Z,5.60
2022-12-01T02:36:02.909Z,5.60
2022-12-01T02:38:14.894Z,5.60
2022-12-01T02:40:24.087Z,5.60
2022-12-01T02:42:53.944Z,5.60
2022-12-01T02:44:58.393Z,5.50
2022-12-01T02:47:06.946Z,5.50
2022-12-01T02:49:14.269Z,5.50
2022-12-01T02:51:21.782Z,5.50
2022-12-01T02:53:24.603Z,5.50
2022-12-01T02:55:27.273Z,5.50
2022-12-01T02:57:31.405Z,5.50
2022-12-01T02:59:34.337Z,5.50
2022-12-01T03:01:52.651Z,5.50
2022-12-01T03:04:21.351Z,5.50
2022-12-01T03:06:37.538Z,5.50
2022-12-01T03:08:47.390Z,5.40
2022-12-01T03:10:55.041Z,5.40
2022-12-01T03:13:08.750Z,5.40
2022-12-01T03:15:20.124Z,5.40
2022-12-01T03:17:29.594Z,5.40
2022-12-01T03:19:41.217Z,5.40
2022-12-01T03:21:49.720Z,5.40
2022-12-01T03:23:56.267Z,5.40
2022-12-01T03:26:02.594Z,5.40
2022-12-01T03:28:22.620Z,5.40
2022-12-01T03:30:26.423Z,5.40
2022-12-01T03:32:32.496Z,5.40
2022-12-01T03:34:41.434Z,5.40
2022-12-01T03:36:48.857Z,5.30
2022-12-01T03:38:56.395Z,5.30
2022-12-01T03:41:02.910Z,5.40
2022-12-01T03:43:09.658Z,5.30
2022-12-01T03:45:18.874Z,5.30
2022-12-01T03:47:25.078Z,5.30
2022-12-01T03:49:28.355Z,5.30
2022-12-01T03:51:40.679Z,5.30
2022-12-01T03:53:51.674Z,5.20
2022-12-01T03:56:01.924Z,5.20
2022-12-01T03:58:09.758Z,5.20
2022-12-01T04:00:14.743Z,5.20
2022-12-01T04:02:18.238Z,5.20
2022-12-01T04:04:21.080Z,5.20
2022-12-01T04:06:23.980Z,5.20
2022-12-01T04:08:28.150Z,5.20
2022-12-01T04:10:32.889Z,5.20
2022-12-01T04:12:34.733Z,5.20
2022-12-01T04:14:37.572Z,5.20
2022-12-01T04:16:40.382Z,5.20
2022-12-01T04:18:43.056Z,5.20
2022-12-01T04:20:46.472Z,5.20
2022-12-01T04:22:49.596Z,5.20
2022-12-01T04:24:54.922Z,5.10
2022-12-01T04:26:57.604Z,5.10
2022-12-01T04:29:00.657Z,5.10
2022-12-01T04:31:03.372Z,5.10
2022-12-01T04:33:06.238Z,5.10
2022-12-01T04:35:10.682Z,5.10
2022-12-01T04:37:13.489Z,5.10
2022-12-01T04:39:16.300Z,5.10
2022-12-01T04:41:20.611Z,5.10
2022-12-01T04:43:23.342Z,5.10
2022-12-01T04:45:26.150Z,5.10
2022-12-01T04:47:28.913Z,5.00
2022-12-01T04:49:32.090Z,5.00
2022-12-01T04:51:34.799Z,5.00
2022-12-01T04:53:37.817Z,5.00
2022-12-01T04:55:40.660Z,5.00
2022-12-01T04:57:44.886Z,5.00
2022-12-01T04:59:48.160Z,5.00
2022-12-01T05:01:51.367Z,5.00
2022-12-01T05:03:54.670Z,5.00
2022-12-01T05:06:04.035Z,5.00
2022-12-01T05:08:06.862Z,5.00
2022-12-01T05:10:10.449Z,5.00
2022-12-01T05:12:13.354Z,5.00
2022-12-01T05:14:17.495Z,4.90
2022-12-01T05:16:22.386Z,5.00
2022-12-01T05:18:25.515Z,5.00
2022-12-01T05:20:46.093Z,5.00
2022-12-01T05:23:05.798Z,5.00
2022-12-01T05:25:10.013Z,5.00
2022-12-01T05:27:12.699Z,5.00
2022-12-01T05:29:17.403Z,5.00
2022-12-01T05:31:20.189Z,5.00
2022-12-01T05:33:23.790Z,5.00
2022-12-01T05:35:27.946Z,5.00
2022-12-01T05:37:33.220Z,5.00
2022-12-01T05:39:35.948Z,5.00
2022-12-01T05:41:38.844Z,5.00
2022-12-01T05:43:41.929Z,5.00
2022-12-01T05:45:46.316Z,5.00
2022-12-01T05:47:49.347Z,5.00
2022-12-01T05:49:52.289Z,5.00
2022-12-01T05:51:55.005Z,5.00
2022-12-01T05:54:00.139Z,5.10
2022-12-01T05:56:03.096Z,5.00
2022-12-01T05:58:06.300Z,5.00
2022-12-01T06:00:10.196Z,5.00
2022-12-01T06:02:14.582Z,5.00
2022-12-01T06:04:18.817Z,5.00
2022-12-01T06:06:22.022Z,5.00
2022-12-01T06:08:24.866Z,4.90
2022-12-01T06:10:27.601Z,4.90
2022-12-01T06:12:30.285Z,4.90
2022-12-01T06:14:33.209Z,4.90
2022-12-01T06:16:36.364Z,4.90
2022-12-01T06:18:40.461Z,4.90
2022-12-01T06:20:43.764Z,4.90
2022-12-01T06:22:46.810Z,4.90
2022-12-01T06:24:49.559Z,4.90
2022-12-01T06:26:52.342Z,4.90
2022-12-01T06:28:55.075Z,4.90
2022-12-01T06:31:03.119Z,4.90
2022-12-01T06:33:06.346Z,4.90
2022-12-01T06:35:10.923Z,4.90
2022-12-01T06:37:15.390Z,4.90
2022-12-01T06:39:18.503Z,4.90
2022-12-01T06:41:21.407Z,4.90
2022-12-01T06:43:24.366Z,4.90
2022-12-01T06:45:27.327Z,4.90
2022-12-01T06:47:30.132Z,4.90
2022-12-01T06:49:33.077Z,4.90
2022-12-01T06:51:37.438Z,4.90
2022-12-01T06:53:40.309Z,4.90
2022-12-01T06:55:43.260Z,4.90
2022-12-01T06:57:46.432Z,4.90
2022-12-01T06:59:49.543Z,4.90
2022-12-01T07:01:53.049Z,4.90
2022-12-01T07:03:56.247Z,4.90
2022-12-01T07:06:00.190Z,4.90
2022-12-01T07:08:06.616Z,4.90
2022-12-01T07:10:11.863Z,4.90
2022-12-01T07:12:14.913Z,4.90
2022-12-01T07:14:24.236Z,4.90
2022-12-01T07:16:27.011Z,4.90
2022-12-01T07:18:29.882Z,4.90
2022-12-01T07:20:32.582Z,4.90
2022-12-01T07:22:36.134Z,4.90
2022-12-01T07:24:40.189Z,4.80
2022-12-01T07:26:43.988Z,4.80
2022-12-01T07:28:46.965Z,4.80
2022-12-01T07:30:49.884Z,4.80
2022-12-01T07:32:52.668Z,4.80
2022-12-01T07:34:55.446Z,4.70
2022-12-01T07:36:58.433Z,4.70
2022-12-01T07:39:01.262Z,4.70
2022-12-01T07:41:06.550Z,4.70
2022-12-01T07:43:09.486Z,4.70
2022-12-01T07:45:12.291Z,4.70
2022-12-01T07:47:15.477Z,4.70
2022-12-01T07:49:18.431Z,4.60
2022-12-01T07:51:22.439Z,4.60
2022-12-01T07:53:25.245Z,4.60
2022-12-01T07:55:27.968Z,4.60
2022-12-01T07:57:32.050Z,4.60
2022-12-01T07:59:35.045Z,4.60
2022-12-01T08:01:42.918Z,4.70
2022-12-01T08:03:49.183Z,4.70
2022-12-01T08:05:58.030Z,4.70
2022-12-01T08:08:00.866Z,4.70
2022-12-01T08:10:03.606Z,4.70
2022-12-01T08:12:07.066Z,4.70
2022-12-01T08:14:11.305Z,4.70
2022-12-01T08:16:16.246Z,4.70
2022-12-01T08:18:19.391Z,4.70
2022-12-01T08:20:24.047Z,4.70
2022-12-01T08:22:26.961Z,4.70
2022-12-01T08:24:29.908Z,4.80
2022-12-01T08:26:32.606Z,4.80
2022-12-01T08:28:37.271Z,4.80
2022-12-01T08:30:41.517Z,4.80
2022-12-01T08:32:44.384Z,4.80
2022-12-01T08:34:53.111Z,4.80
2022-12-01T08:36:56.393Z,4.90
2022-12-01T08:39:01.346Z,4.90
2022-12-01T08:41:05.663Z,4.90
2022-12-01T08:43:15.240Z,4.90
2022-12-01T08:45:25.837Z,4.90
2022-12-01T08:47:30.282Z,4.90
2022-12-01T08:49:33.214Z,5.00
2022-12-01T08:51:37.033Z,5.00
2022-12-01T08:53:45.314Z,5.00
2022-12-01T08:55:48.663Z,5.00
2022-12-01T08:57:51.522Z,5.10
2022-12-01T08:59:54.211Z,5.10
2022-12-01T09:01:57.401Z,5.20
2022-12-01T09:04:09.343Z,5.20
2022-12-01T09:06:14.564Z,5.30
2022-12-01T09:08:32.583Z,5.40
2022-12-01T09:10:35.532Z,5.40
2022-12-01T09:12:38.422Z,5.50
2022-12-01T09:14:47.926Z,5.50
2022-12-01T09:16:51.954Z,5.50
2022-12-01T09:18:55.551Z,5.60
2022-12-01T09:21:00.336Z,5.50
2022-12-01T09:23:03.247Z,5.50
2022-12-01T09:25:09.349Z,5.50
2022-12-01T09:27:13.103Z,5.50
2022-12-01T09:29:17.699Z,5.50
2022-12-01T09:31:23.374Z,5.60
2022-12-01T09:33:26.353Z,5.60
2022-12-01T09:35:31.307Z,5.70
2022-12-01T09:37:35.476Z,5.80
2022-12-01T09:39:38.418Z,5.80
2022-12-01T09:41:45.283Z,5.80
2022-12-01T09:43:53.089Z,5.90
2022-12-01T09:46:03.889Z,5.90
2022-12-01T09:48:08.807Z,5.80
2022-12-01T09:50:15.785Z,5.80
2022-12-01T09:52:20.594Z,5.70
2022-12-01T09:54:24.744Z,5.70
2022-12-01T09:56:33.508Z,5.60
2022-12-01T09:58:37.040Z,5.60
2022-12-01T10:00:44.642Z,5.50
2022-12-01T10:02:52.732Z,5.40
2022-12-01T10:04:59.035Z,5.30
2022-12-01T10:07:07.487Z,5.30
2022-12-01T10:09:21.858Z,5.20
2022-12-01T10:11:32.298Z,5.20
2022-12-01T10:13:35.686Z,5.20
2022-12-01T10:15:45.422Z,5.20
2022-12-01T10:18:00.338Z,5.30
2022-12-01T10:20:10.191Z,5.30
2022-12-01T10:22:30.933Z,5.30
2022-12-01T10:24:48.831Z,5.40
2022-12-01T10:27:00.841Z,5.40
2022-12-01T10:29:13.406Z,5.40
2022-12-01T10:31:21.325Z,5.30
2022-12-01T10:33:26.547Z,5.30
2022-12-01T10:35:36.060Z,5.30
2022-12-01T10:37:39.920Z,5.30
2022-12-01T10:39:46.277Z,5.30
2022-12-01T10:41:50.937Z,5.30
2022-12-01T10:44:00.881Z,5.40
2022-12-01T10:46:21.625Z,5.50
2022-12-01T10:48:24.496Z,5.70
2022-12-01T10:50:28.944Z,5.80
2022-12-01T10:53:04.209Z,5.90
2022-12-01T10:55:29.846Z,5.90
2022-12-01T10:57:34.062Z,5.90
2022-12-01T10:59:41.746Z,5.90
2022-12-01T11:01:48.919Z,5.90
2022-12-01T11:03:55.411Z,5.80
2022-12-01T11:06:00.523Z,5.80
2022-12-01T11:08:04.245Z,5.70
2022-12-01T11:10:17.999Z,5.60
2022-12-01T11:12:20.992Z,5.60
2022-12-01T11:14:29.124Z,5.50
2022-12-01T11:16:42.440Z,5.40
2022-12-01T11:18:45.329Z,5.40
2022-12-01T11:20:48.418Z,5.40
2022-12-01T11:22:51.650Z,5.40
2022-12-01T11:25:03.155Z,5.40
2022-12-01T11:27:16.856Z,5.40
2022-12-01T11:29:31.362Z,5.50
2022-12-01T11:31:40.054Z,5.50
2022-12-01T11:33:48.662Z,5.60
2022-12-01T11:35:51.875Z,5.60
2022-12-01T11:40:24.229Z,5.60
2022-12-01T11:42:29.918Z,5.50
2022-12-01T11:44:50.856Z,5.50
2022-12-01T11:47:07.862Z,5.50
2022-12-01T11:49:20.323Z,5.50
2022-12-01T11:51:29.885Z,5.50
2022-12-01T11:53:34.867Z,5.50
2022-12-01T11:55:37.905Z,5.50
2022-12-01T11:57:44.510Z,5.60
2022-12-01T11:59:48.959Z,5.60
2022-12-01T12:02:14.543Z,5.60
2022-12-01T12:04:30.069Z,5.60
2022-12-01T12:06:40.456Z,5.60
2022-12-01T12:08:56.194Z,5.60
2022-12-01T12:11:08.163Z,5.60
2022-12-01T12:13:49.415Z,5.60
2022-12-01T12:16:01.903Z,5.60
2022-12-01T12:18:32.253Z,5.60
2022-12-01T12:20:43.799Z,5.60
2022-12-01T12:22:56.026Z,5.60
2022-12-01T12:25:14.130Z,5.60
2022-12-01T12:27:25.066Z,5.60
2022-12-01T12:29:43.766Z,5.70
2022-12-01T12:31:56.859Z,5.70
2022-12-01T12:34:14.299Z,5.80
2022-12-01T12:36:26.323Z,5.80
2022-12-01T12:38:50.402Z,5.80
2022-12-01T12:40:58.940Z,5.80
2022-12-01T12:43:19.789Z,5.80
2022-12-01T12:45:29.346Z,5.80
2022-12-01T12:47:46.655Z,5.70
2022-12-01T12:49:59.999Z,5.70
2022-12-01T12:52:08.948Z,5.70
2022-12-01T12:54:21.966Z,5.60
2022-12-01T12:56:27.815Z,5.60
2022-12-01T12:58:36.228Z,5.50
2022-12-01T13:00:44.897Z,5.40
2022-12-01T13:02:54.070Z,5.40
2022-12-01T13:05:03.582Z,5.40
2022-12-01T13:07:10.950Z,5.30
2022-12-01T13:09:18.946Z,5.30
2022-12-01T13:11:25.181Z,5.30
2022-12-01T13:13:34.562Z,5.40
2022-12-01T13:15:38.793Z,5.40
2022-12-01T13:17:45.550Z,5.40
2022-12-01T13:19:49.866Z,5.50
2022-12-01T13:21:54.340Z,5.50
2022-12-01T13:23:57.223Z,5.60
2022-12-01T13:26:04.274Z,5.60
2022-12-01T13:28:13.776Z,5.60
2022-12-01T13:30:22.076Z,5.60
2022-12-01T13:32:32.621Z,5.60
2022-12-01T13:34:38.981Z,5.60
2022-12-01T13:36:50.130Z,5.60
2022-12-01T13:38:58.959Z,5.70
2022-12-01T13:41:12.550Z,5.60
2022-12-01T13:43:20.135Z,5.60
2022-12-01T13:45:23.219Z,5.60
2022-12-01T13:47:39.163Z,5.60
2022-12-01T13:49:43.870Z,5.60
2022-12-01T13:52:28.078Z,5.60
2022-12-01T13:54:31.373Z,5.60
2022-12-01T13:56:47.292Z,5.50
2022-12-01T13:58:52.327Z,5.50
2022-12-01T14:01:15.129Z,5.40
2022-12-01T14:03:40.033Z,5.40
2022-12-01T14:05:51.887Z,5.40
2022-12-01T14:07:56.276Z,5.40
2022-12-01T14:10:09.816Z,5.40
2022-12-01T14:12:18.689Z,5.30
2022-12-01T14:14:26.175Z,5.30
2022-12-01T14:16:47.811Z,5.30
2022-12-01T14:18:53.097Z,5.30
2022-12-01T14:20:56.259Z,5.30
2022-12-01T14:23:24.011Z,5.30
2022-12-01T14:25:30.449Z,5.30
2022-12-01T14:27:39.046Z,5.30
2022-12-01T14:29:43.127Z,5.20
2022-12-01T14:32:19.594Z,5.20
2022-12-01T14:34:26.401Z,5.20
2022-12-01T14:36:39.921Z,5.20
2022-12-01T14:38:45.166Z,5.10
2022-12-01T14:40:48.398Z,5.10
2022-12-01T14:43:12.473Z,5.10
2022-12-01T14:45:19.833Z,5.00
2022-12-01T14:47:25.642Z,5.00
2022-12-01T14:49:32.989Z,5.00
2022-12-01T14:51:37.494Z,5.00
2022-12-01T14:53:44.410Z,4.90
2022-12-01T14:55:53.181Z,4.90
2022-12-01T14:58:06.191Z,4.90
2022-12-01T15:00:15.359Z,4.90
2022-12-01T15:02:18.293Z,4.90
2022-12-01T15:04:21.544Z,4.90
2022-12-01T15:06:27.450Z,4.80
2022-12-01T15:10:57.745Z,4.80
2022-12-01T15:13:14.263Z,4.80
2022-12-01T15:15:22.441Z,4.70
2022-12-01T15:17:31.479Z,4.70
2022-12-01T15:19:37.293Z,4.70
2022-12-01T15:21:40.243Z,4.70
2022-12-01T15:24:00.582Z,4.70
2022-12-01T15:26:05.078Z,4.60
2022-12-01T15:28:14.595Z,4.60
2022-12-01T15:30:19.079Z,4.60
2022-12-01T15:32:23.732Z,4.60
2022-12-01T15:34:31.934Z,4.60
2022-12-01T15:36:34.827Z,4.60
2022-12-01T15:38:39.000Z,4.60
2022-12-01T15:41:13.295Z,4.50
2022-12-01T15:43:15.553Z,4.50
2022-12-01T15:45:20.720Z,4.50
2022-12-01T15:47:36.729Z,4.50
2022-12-01T15:49:49.845Z,4.50
2022-12-01T15:51:53.397Z,4.50
2022-12-01T15:53:59.156Z,4.50
2022-12-01T15:56:05.533Z,4.50
2022-12-01T15:58:17.383Z,4.50
2022-12-01T16:00:21.802Z,4.50
2022-12-01T16:02:29.594Z,4.50
2022-12-01T16:04:33.085Z,4.40
2022-12-01T16:06:38.297Z,4.40
2022-12-01T16:08:41.459Z,4.40
2022-12-01T16:10:44.367Z,4.40
2022-12-01T16:12:47.042Z,4.40
2022-12-01T16:14:54.573Z,4.40
2022-12-01T16:16:57.380Z,4.30
2022-12-01T16:19:05.413Z,4.40
2022-12-01T16:21:08.149Z,4.30
2022-12-01T16:23:16.011Z,4.30
2022-12-01T16:25:22.519Z,4.30
2022-12-01T16:27:27.417Z,4.30
2022-12-01T16:29:34.801Z,4.30
2022-12-01T16:31:52.814Z,4.30
2022-12-01T16:34:13.951Z,4.30
2022-12-01T16:36:27.016Z,4.30
2022-12-01T16:38:31.073Z,4.30
2022-12-01T16:40:35.370Z,4.20
2022-12-01T16:42:38.047Z,4.30
2022-12-01T16:44:41.302Z,4.20
2022-12-01T16:46:45.670Z,4.20
2022-12-01T16:48:48.493Z,4.20
2022-12-01T16:50:52.278Z,4.30
2022-12-01T16:52:55.019Z,4.30
2022-12-01T16:54:57.979Z,4.20
2022-12-01T16:57:00.783Z,4.20
2022-12-01T16:59:04.990Z,4.20
2022-12-01T17:01:08.895Z,4.20
2022-12-01T17:03:16.431Z,4.20
2022-12-01T17:05:19.323Z,4.20
2022-12-01T17:07:22.190Z,4.20
2022-12-01T17:09:25.227Z,4.20
2022-12-01T17:11:27.999Z,4.20
2022-12-01T17:13:30.722Z,4.20
2022-12-01T17:15:33.607Z,4.20
2022-12-01T17:17:36.451Z,4.30
2022-12-01T17:19:40.656Z,4.20
2022-12-01T17:21:43.409Z,4.20
2022-12-01T17:23:46.287Z,4.30
2022-12-01T17:25:48.970Z,4.20
2022-12-01T17:27:51.725Z,4.20
2022-12-01T17:29:54.527Z,4.20
2022-12-01T17:31:57.513Z,4.20
2022-12-01T17:34:00.478Z,4.20
2022-12-01T17:36:07.826Z,4.20
2022-12-01T17:38:10.614Z,4.20
2022-12-01T17:40:14.882Z,4.20
2022-12-01T17:42:18.022Z,4.20
2022-12-01T17:44:21.066Z,4.20
2022-12-01T17:46:24.010Z,4.20
2022-12-01T17:48:26.979Z,4.20
2022-12-01T17:50:30.035Z,4.20
2022-12-01T17:52:34.085Z,4.20
2022-12-01T17:54:37.095Z,4.10
2022-12-01T17:56:39.961Z,4.10
2022-12-01T17:58:43.252Z,4.10
2022-12-01T18:00:46.020Z,4.10
2022-12-01T18:02:50.407Z,4.10
2022-12-01T18:04:53.521Z,4.10
2022-12-01T18:06:56.634Z,4.10
2022-12-01T18:09:02.270Z,4.10
2022-12-01T18:11:08.096Z,4.10
2022-12-01T18:13:10.863Z,4.10
2022-12-01T18:15:13.870Z,4.10
2022-12-01T18:17:16.658Z,4.10
2022-12-01T18:19:20.267Z,4.10
2022-12-01T18:21:24.159Z,4.10
2022-12-01T18:23:26.983Z,4.10
2022-12-01T18:25:31.059Z,4.10
2022-12-01T18:27:33.773Z,4.10
2022-12-01T18:29:36.527Z,4.10
2022-12-01T18:31:39.681Z,4.10
2022-12-01T18:33:44.889Z,4.10
2022-12-01T18:35:47.853Z,4.10
2022-12-01T18:37:50.686Z,4.10
2022-12-01T18:39:55.745Z,4.10
2022-12-01T18:42:00.136Z,4.10
2022-12-01T18:44:03.415Z,4.10
2022-12-01T18:46:07.462Z,4.10
2022-12-01T18:48:10.258Z,4.10
2022-12-01T18:50:13.410Z,4.10
2022-12-01T18:52:16.490Z,4.10
2022-12-01T18:54:19.274Z,4.10
2022-12-01T18:56:22.410Z,4.10
2022-12-01T18:58:26.591Z,4.10
2022-12-01T19:00:29.438Z,4.00
2022-12-01T19:02:32.340Z,4.10
2022-12-01T19:04:35.292Z,4.10
2022-12-01T19:06:40.045Z,4.10
2022-12-01T19:08:43.421Z,4.10
2022-12-01T19:10:46.300Z,4.00
2022-12-01T19:12:49.281Z,4.10
2022-12-01T19:14:54.137Z,4.00
2022-12-01T19:16:57.963Z,4.00
2022-12-01T19:19:02.118Z,4.10
2022-12-01T19:21:06.422Z,4.10
2022-12-01T19:23:09.236Z,4.10
2022-12-01T19:25:13.291Z,4.00
2022-12-01T19:27:16.183Z,4.00
2022-12-01T19:29:19.257Z,4.10
2022-12-01T19:31:27.755Z,4.00
2022-12-01T19:33:30.738Z,4.00
2022-12-01T19:35:33.831Z,4.00
2022-12-01T19:37:36.503Z,4.00
2022-12-01T19:39:39.554Z,4.00
2022-12-01T19:41:42.248Z,4.00
2022-12-01T19:43:45.184Z,4.00
2022-12-01T19:45:47.969Z,4.00
2022-12-01T19:47:53.418Z,4.00
2022-12-01T19:49:56.142Z,4.00
2022-12-01T19:51:58.999Z,4.00
2022-12-01T19:54:02.731Z,4.00
2022-12-01T19:56:06.534Z,4.00
2022-12-01T19:58:09.247Z,4.00
2022-12-01T20:00:13.319Z,4.00
2022-12-01T20:02:16.081Z,4.00
2022-12-01T20:04:20.481Z,4.00
2022-12-01T20:06:25.820Z,4.00
2022-12-01T20:08:28.755Z,4.00
2022-12-01T20:10:32.129Z,4.00
2022-12-01T20:12:35.251Z,4.00
2022-12-01T20:14:38.395Z,4.00
2022-12-01T20:16:41.761Z,4.00
2022-12-01T20:18:45.151Z,4.00
2022-12-01T20:20:49.163Z,4.00
2022-12-01T20:22:51.883Z,4.00
2022-12-01T20:24:54.627Z,4.00
2022-12-01T20:26:57.759Z,4.00
2022-12-01T20:29:03.115Z,4.00
2022-12-01T20:31:10.972Z,4.00
2022-12-01T20:33:14.023Z,4.00
2022-12-01T20:35:16.830Z,4.00
2022-12-01T20:37:20.985Z,4.00
2022-12-01T20:39:24.793Z,3.90
2022-12-01T20:41:27.826Z,4.00
2022-12-01T20:43:31.013Z,4.00
2022-12-01T20:45:33.956Z,3.90
2022-12-01T20:47:36.771Z,3.90
2022-12-01T20:49:39.483Z,3.90
2022-12-01T20:51:42.241Z,3.90
2022-12-01T20:54:05.481Z,3.90
2022-12-01T20:56:11.465Z,3.90
2022-12-01T20:58:14.472Z,3.90
2022-12-01T21:00:18.171Z,3.90
2022-12-01T21:02:21.239Z,3.90
2022-12-01T21:04:24.116Z,3.90
2022-12-01T21:06:28.945Z,3.90
2022-12-01T21:08:32.028Z,3.90
2022-12-01T21:10:38.619Z,3.90
2022-12-01T21:13:01.343Z,3.90
2022-12-01T21:15:15.418Z,3.90
2022-12-01T21:17:26.969Z,3.90
2022-12-01T21:19:38.875Z,3.90
2022-12-01T21:21:42.607Z,3.90
2022-12-01T21:23:45.299Z,3.80
2022-12-01T21:25:51.150Z,3.80
2022-12-01T21:27:57.548Z,3.80
2022-12-01T21:30:00.451Z,3.80
2022-12-01T21:32:12.765Z,3.80
2022-12-01T21:34:20.140Z,3.80
2022-12-01T21:36:24.942Z,3.80
2022-12-01T21:38:28.474Z,3.80
2022-12-01T21:40:31.983Z,3.80
2022-12-01T21:42:38.107Z,3.80
2022-12-01T21:44:41.227Z,3.80
2022-12-01T21:46:44.532Z,3.80
2022-12-01T21:48:47.301Z,3.70
2022-12-01T21:50:54.088Z,3.80
2022-12-01T21:52:57.027Z,3.70
2022-12-01T21:55:03.244Z,3.70
2022-12-01T21:57:24.854Z,3.70
2022-12-01T21:59:29.091Z,3.70
2022-12-01T22:01:33.318Z,3.70
2022-12-01T22:03:40.616Z,3.70
2022-12-01T22:06:01.103Z,3.70
2022-12-01T22:08:25.621Z,3.70
2022-12-01T22:11:00.763Z,3.70
2022-12-01T22:13:08.795Z,3.60
2022-12-01T22:15:35.857Z,3.60
2022-12-01T22:17:39.011Z,3.60
2022-12-01T22:19:46.668Z,3.60
2022-12-01T22:21:50.376Z,3.60
2022-12-01T22:24:01.719Z,3.60
2022-12-01T22:26:16.975Z,3.50
2022-12-01T22:28:24.712Z,3.50
2022-12-01T22:30:28.979Z,3.50
2022-12-01T22:32:51.195Z,3.50
2022-12-01T22:34:57.655Z,3.50
2022-12-01T22:37:00.673Z,3.50
2022-12-01T22:39:23.387Z,3.50
2022-12-01T22:41:28.500Z,3.40
2022-12-01T22:43:44.801Z,3.40
2022-12-01T22:45:50.897Z,3.40
2022-12-01T22:47:57.778Z,3.40
2022-12-01T22:50:00.558Z,3.40
2022-12-01T22:52:07.709Z,3.40
2022-12-01T22:54:33.257Z,3.40
2022-12-01T22:56:39.829Z,3.30
2022-12-01T22:58:42.655Z,3.30
2022-12-01T23:00:45.790Z,3.30
2022-12-01T23:02:51.719Z,3.30
2022-12-01T23:04:58.254Z,3.30
2022-12-01T23:07:03.845Z,3.30
2022-12-01T23:09:07.120Z,3.30
2022-12-01T23:11:12.765Z,3.30
2022-12-01T23:13:17.380Z,3.30
2022-12-01T23:15:28.083Z,3.30
2022-12-01T23:17:34.097Z,3.30
2022-12-01T23:19:38.114Z,3.30
2022-12-01T23:21:40.861Z,3.30
2022-12-01T23:23:43.729Z,3.30
2022-12-01T23:25:47.804Z,3.30
2022-12-01T23:27:52.356Z,3.30
2022-12-01T23:29:55.430Z,3.30
2022-12-01T23:31:58.561Z,3.30
2022-12-01T23:34:01.791Z,3.40
2022-12-01T23:36:12.589Z,3.40
2022-12-01T23:38:18.229Z,3.40
2022-12-01T23:40:24.841Z,3.40
2022-12-01T23:42:28.046Z,3.40
2022-12-01T23:44:39.687Z,3.40
2022-12-01T23:46:42.883Z,3.40
2022-12-01T23:48:48.985Z,3.40
2022-12-01T23:50:54.413Z,3.40
2022-12-01T23:52:58.730Z,3.40
2022-12-01T23:55:01.984Z,3.40
2022-12-01T23:57:12.030Z,3.40
2022-12-01T23:59:15.560Z,3.40
